FIN852 LKPR-EFHK
Flight info
| Callsign | FIN852 |
|---|---|
| Flight time | N/A |
| Altitude | 41000 |
| Route | ARTUP4H ARTUP DCT TOMTI DCT DIMEX DCT RIVDI/N0491F430 DCT PENOR/N0486F410 DCT ALAMI DCT OKEVU DCT EVADI Y370 DIVAM DIVAM5A |
| Aircraft | A359/H-VGDW/C |
Departure
| Time | N/A |
|---|---|
| Airport | Václav Havel Airport Prague (LKPR) |
Arrival
| Time | 2026-05-06 21:24 |
|---|---|
| Airport | Helsinki Vantaa Airport (EFHK) |
| Time | Latitude | Longitude | Altitude | Speed | Heading |
|---|---|---|---|---|---|
| 2026-05-06 20:28 | 56.36550 | 17.87420 | 40993 ft | 509 kts | 34° |
| 2026-05-06 20:29 | 56.42367 | 17.94906 | 40963 ft | 518 kts | 32° |
| 2026-05-06 20:29 | 56.48519 | 18.01915 | 40961 ft | 524 kts | 28° |
| 2026-05-06 20:30 | 56.57319 | 18.12827 | 40965 ft | 526 kts | 51° |
| 2026-05-06 20:31 | 56.61586 | 18.23623 | 40972 ft | 527 kts | 50° |
| 2026-05-06 20:31 | 56.67000 | 18.32452 | 40951 ft | 523 kts | 31° |
| 2026-05-06 20:32 | 56.73244 | 18.39277 | 40970 ft | 523 kts | 27° |
| 2026-05-06 20:32 | 56.79625 | 18.45631 | 40978 ft | 523 kts | 26° |
| 2026-05-06 20:33 | 56.86016 | 18.52010 | 40979 ft | 523 kts | 27° |
| 2026-05-06 20:33 | 56.92388 | 18.58483 | 40977 ft | 523 kts | 27° |
| 2026-05-06 20:34 | 56.98707 | 18.64968 | 40984 ft | 523 kts | 27° |
| 2026-05-06 20:34 | 57.05054 | 18.71513 | 40983 ft | 523 kts | 27° |
| 2026-05-06 20:35 | 57.11409 | 18.78090 | 40984 ft | 524 kts | 27° |
| 2026-05-06 20:35 | 57.17765 | 18.84691 | 40985 ft | 524 kts | 27° |
| 2026-05-06 20:36 | 57.24110 | 18.91306 | 40986 ft | 524 kts | 27° |
| 2026-05-06 20:36 | 57.30462 | 18.97955 | 40990 ft | 524 kts | 27° |
| 2026-05-06 20:37 | 57.36768 | 19.04584 | 40992 ft | 524 kts | 27° |
| 2026-05-06 20:37 | 57.43103 | 19.11268 | 40992 ft | 524 kts | 27° |
| 2026-05-06 20:38 | 57.49444 | 19.17986 | 40989 ft | 524 kts | 27° |
| 2026-05-06 20:38 | 57.55784 | 19.24731 | 40997 ft | 524 kts | 27° |
| 2026-05-06 20:39 | 57.62121 | 19.31500 | 40994 ft | 524 kts | 27° |
| 2026-05-06 20:39 | 57.67807 | 19.37596 | 40993 ft | 525 kts | 28° |
| 2026-05-06 20:40 | 57.74143 | 19.44415 | 40992 ft | 525 kts | 28° |
| 2026-05-06 20:40 | 57.80464 | 19.51247 | 40996 ft | 525 kts | 28° |
| 2026-05-06 20:41 | 57.86793 | 19.58116 | 40998 ft | 525 kts | 28° |
| 2026-05-06 20:41 | 57.92051 | 19.63842 | 40999 ft | 525 kts | 28° |
| 2026-05-06 20:42 | 57.98380 | 19.70762 | 40998 ft | 525 kts | 28° |
| 2026-05-06 20:42 | 58.05723 | 19.78827 | 41012 ft | 525 kts | 28° |
| 2026-05-06 20:43 | 58.11016 | 19.84664 | 41005 ft | 526 kts | 28° |
| 2026-05-06 20:43 | 58.17328 | 19.91652 | 41004 ft | 526 kts | 28° |
| 2026-05-06 20:44 | 58.23606 | 19.98631 | 41004 ft | 526 kts | 28° |
| 2026-05-06 20:44 | 58.29924 | 20.05683 | 41004 ft | 526 kts | 28° |
| 2026-05-06 20:45 | 58.36240 | 20.12764 | 41010 ft | 527 kts | 28° |
| 2026-05-06 20:45 | 58.42549 | 20.19866 | 41009 ft | 527 kts | 28° |
| 2026-05-06 20:46 | 58.48866 | 20.27007 | 41008 ft | 527 kts | 28° |
| 2026-05-06 20:46 | 58.55180 | 20.34174 | 41007 ft | 527 kts | 28° |
| 2026-05-06 20:47 | 58.61482 | 20.41359 | 41010 ft | 528 kts | 28° |
| 2026-05-06 20:47 | 58.67767 | 20.48554 | 41013 ft | 528 kts | 28° |
| 2026-05-06 20:48 | 58.74069 | 20.55800 | 41013 ft | 528 kts | 28° |
| 2026-05-06 20:48 | 58.80379 | 20.63085 | 41007 ft | 528 kts | 28° |
| 2026-05-06 20:49 | 58.86671 | 20.70382 | 41025 ft | 528 kts | 28° |
| 2026-05-06 20:49 | 58.92939 | 20.77681 | 41028 ft | 528 kts | 28° |
| 2026-05-06 20:50 | 58.99234 | 20.85044 | 41024 ft | 528 kts | 29° |
| 2026-05-06 20:50 | 59.02276 | 20.89009 | 40852 ft | 527 kts | 36° |
| 2026-05-06 20:50 | 59.05000 | 20.93793 | 40138 ft | 530 kts | 46° |
| 2026-05-06 20:50 | 59.07282 | 20.99472 | 39329 ft | 536 kts | 56° |
| 2026-05-06 20:51 | 59.09324 | 21.05573 | 38498 ft | 539 kts | 57° |
| 2026-05-06 20:51 | 59.11299 | 21.11811 | 37498 ft | 542 kts | 59° |
| 2026-05-06 20:51 | 59.13250 | 21.18129 | 36508 ft | 545 kts | 59° |
| 2026-05-06 20:51 | 59.15201 | 21.24494 | 35545 ft | 547 kts | 59° |
| 2026-05-06 20:52 | 59.17158 | 21.30871 | 34732 ft | 547 kts | 59° |
| 2026-05-06 20:52 | 59.19119 | 21.37243 | 33849 ft | 548 kts | 59° |
| 2026-05-06 20:52 | 59.21086 | 21.43621 | 32891 ft | 548 kts | 59° |
| 2026-05-06 20:52 | 59.23024 | 21.49905 | 31999 ft | 546 kts | 59° |
| 2026-05-06 20:53 | 59.24999 | 21.56312 | 31384 ft | 541 kts | 59° |
| 2026-05-06 20:53 | 59.26930 | 21.62587 | 30676 ft | 537 kts | 59° |
| 2026-05-06 20:53 | 59.28820 | 21.68754 | 30044 ft | 533 kts | 59° |
| 2026-05-06 20:53 | 59.30712 | 21.74947 | 29403 ft | 527 kts | 59° |
| 2026-05-06 20:54 | 59.32578 | 21.81072 | 28834 ft | 519 kts | 59° |
| 2026-05-06 20:54 | 59.34419 | 21.87129 | 28255 ft | 512 kts | 59° |
| 2026-05-06 20:54 | 59.36239 | 21.93107 | 27588 ft | 508 kts | 59° |
| 2026-05-06 20:54 | 59.38038 | 21.99044 | 26965 ft | 504 kts | 59° |
| 2026-05-06 20:55 | 59.39817 | 22.04937 | 26371 ft | 499 kts | 59° |
| 2026-05-06 20:55 | 59.41577 | 22.10783 | 25763 ft | 495 kts | 59° |
| 2026-05-06 20:55 | 59.43297 | 22.16509 | 25174 ft | 491 kts | 60° |
| 2026-05-06 20:55 | 59.45029 | 22.22288 | 24592 ft | 487 kts | 60° |
| 2026-05-06 20:56 | 59.46741 | 22.28014 | 23903 ft | 486 kts | 60° |
| 2026-05-06 20:56 | 59.48453 | 22.33752 | 23294 ft | 482 kts | 60° |
| 2026-05-06 20:56 | 59.50137 | 22.39415 | 22672 ft | 476 kts | 60° |
| 2026-05-06 20:56 | 59.51791 | 22.44988 | 22114 ft | 469 kts | 60° |
| 2026-05-06 20:57 | 59.53409 | 22.50455 | 21539 ft | 463 kts | 60° |
| 2026-05-06 20:57 | 59.55013 | 22.55893 | 20987 ft | 457 kts | 60° |
| 2026-05-06 20:57 | 59.56597 | 22.61284 | 20424 ft | 451 kts | 59° |
| 2026-05-06 20:57 | 59.58154 | 22.66592 | 19872 ft | 445 kts | 59° |
| 2026-05-06 20:58 | 59.59698 | 22.71870 | 19330 ft | 439 kts | 59° |
| 2026-05-06 20:58 | 59.61217 | 22.77068 | 18721 ft | 434 kts | 59° |
| 2026-05-06 20:58 | 59.62719 | 22.82219 | 18168 ft | 430 kts | 59° |
| 2026-05-06 20:58 | 59.64201 | 22.87313 | 17563 ft | 424 kts | 59° |
| 2026-05-06 20:59 | 59.65640 | 22.92272 | 17007 ft | 418 kts | 59° |
| 2026-05-06 20:59 | 59.67081 | 22.97246 | 16411 ft | 412 kts | 59° |
| 2026-05-06 20:59 | 59.68491 | 23.02121 | 15853 ft | 406 kts | 59° |
| 2026-05-06 20:59 | 59.69887 | 23.06941 | 15302 ft | 400 kts | 59° |
| 2026-05-06 21:00 | 59.71257 | 23.11700 | 14749 ft | 394 kts | 59° |
| 2026-05-06 21:00 | 59.72606 | 23.16394 | 14204 ft | 389 kts | 59° |
| 2026-05-06 21:00 | 59.73931 | 23.21009 | 13641 ft | 383 kts | 59° |
| 2026-05-06 21:00 | 59.75240 | 23.25579 | 13009 ft | 378 kts | 60° |
| 2026-05-06 21:01 | 59.76533 | 23.30099 | 12357 ft | 374 kts | 60° |
| 2026-05-06 21:01 | 59.77807 | 23.34558 | 11707 ft | 370 kts | 60° |
| 2026-05-06 21:01 | 59.79068 | 23.38983 | 11087 ft | 366 kts | 60° |
| 2026-05-06 21:01 | 59.80290 | 23.43279 | 10697 ft | 356 kts | 60° |
| 2026-05-06 21:02 | 59.81484 | 23.47487 | 10430 ft | 343 kts | 60° |
| 2026-05-06 21:02 | 59.82632 | 23.51541 | 10171 ft | 330 kts | 60° |
| 2026-05-06 21:02 | 59.83734 | 23.55436 | 10033 ft | 314 kts | 60° |
| 2026-05-06 21:02 | 59.84771 | 23.59109 | 10014 ft | 297 kts | 60° |
| 2026-05-06 21:03 | 59.85767 | 23.62657 | 10019 ft | 292 kts | 61° |
| 2026-05-06 21:03 | 59.86760 | 23.66189 | 9956 ft | 290 kts | 60° |
| 2026-05-06 21:03 | 59.87734 | 23.69655 | 9913 ft | 288 kts | 61° |
| 2026-05-06 21:03 | 59.88721 | 23.73175 | 9906 ft | 292 kts | 60° |
| 2026-05-06 21:04 | 59.89714 | 23.76725 | 9911 ft | 293 kts | 60° |
| 2026-05-06 21:04 | 59.90707 | 23.80277 | 9910 ft | 292 kts | 60° |
| 2026-05-06 21:04 | 59.91625 | 23.83901 | 9888 ft | 293 kts | 66° |
| 2026-05-06 21:04 | 59.92432 | 23.87621 | 9817 ft | 293 kts | 67° |
| 2026-05-06 21:05 | 59.93225 | 23.91360 | 9706 ft | 292 kts | 67° |
| 2026-05-06 21:05 | 59.94015 | 23.95086 | 9584 ft | 291 kts | 67° |
| 2026-05-06 21:05 | 59.94797 | 23.98773 | 9471 ft | 292 kts | 67° |
| 2026-05-06 21:05 | 59.95585 | 24.02492 | 9334 ft | 289 kts | 67° |
| 2026-05-06 21:06 | 59.96364 | 24.06172 | 9209 ft | 288 kts | 67° |
| 2026-05-06 21:06 | 59.97142 | 24.09850 | 9100 ft | 287 kts | 67° |
| 2026-05-06 21:06 | 59.97919 | 24.13535 | 8973 ft | 286 kts | 67° |
| 2026-05-06 21:06 | 59.98688 | 24.17187 | 8864 ft | 284 kts | 68° |
| 2026-05-06 21:07 | 59.99455 | 24.20829 | 8736 ft | 284 kts | 68° |
| 2026-05-06 21:07 | 60.00218 | 24.24468 | 8615 ft | 284 kts | 68° |
| 2026-05-06 21:07 | 60.00981 | 24.28108 | 8496 ft | 283 kts | 68° |
| 2026-05-06 21:07 | 60.01732 | 24.31696 | 8373 ft | 283 kts | 68° |
| 2026-05-06 21:08 | 60.02491 | 24.35327 | 8256 ft | 282 kts | 68° |
| 2026-05-06 21:08 | 60.03243 | 24.38937 | 8138 ft | 280 kts | 68° |
| 2026-05-06 21:08 | 60.03989 | 24.42521 | 8015 ft | 279 kts | 68° |
| 2026-05-06 21:08 | 60.04735 | 24.46109 | 7899 ft | 278 kts | 68° |
| 2026-05-06 21:09 | 60.05478 | 24.49695 | 7785 ft | 277 kts | 68° |
| 2026-05-06 21:09 | 60.06213 | 24.53246 | 7668 ft | 276 kts | 69° |
| 2026-05-06 21:09 | 60.06947 | 24.56795 | 7552 ft | 275 kts | 68° |
| 2026-05-06 21:09 | 60.07674 | 24.60318 | 7429 ft | 274 kts | 68° |
| 2026-05-06 21:10 | 60.08399 | 24.63842 | 7326 ft | 273 kts | 69° |
| 2026-05-06 21:10 | 60.09110 | 24.67306 | 7200 ft | 271 kts | 68° |
| 2026-05-06 21:10 | 60.09834 | 24.70776 | 7075 ft | 268 kts | 66° |
| 2026-05-06 21:10 | 60.10831 | 24.73945 | 6989 ft | 268 kts | 50° |
| 2026-05-06 21:11 | 60.12077 | 24.76725 | 6872 ft | 267 kts | 47° |
| 2026-05-06 21:11 | 60.13345 | 24.79445 | 6745 ft | 267 kts | 47° |
| 2026-05-06 21:11 | 60.14607 | 24.82169 | 6643 ft | 266 kts | 48° |
| 2026-05-06 21:11 | 60.15866 | 24.84904 | 6544 ft | 265 kts | 48° |
| 2026-05-06 21:12 | 60.17115 | 24.87625 | 6419 ft | 264 kts | 48° |
| 2026-05-06 21:12 | 60.18358 | 24.90342 | 6170 ft | 264 kts | 48° |
| 2026-05-06 21:12 | 60.19599 | 24.93061 | 5641 ft | 265 kts | 48° |
| 2026-05-06 21:12 | 60.20826 | 24.95750 | 5231 ft | 263 kts | 47° |
| 2026-05-06 21:13 | 60.22073 | 24.98487 | 4804 ft | 261 kts | 47° |
| 2026-05-06 21:13 | 60.23282 | 25.01146 | 4372 ft | 260 kts | 47° |
| 2026-05-06 21:13 | 60.24500 | 25.03827 | 3949 ft | 258 kts | 47° |
| 2026-05-06 21:13 | 60.25707 | 25.06486 | 3512 ft | 257 kts | 47° |
| 2026-05-06 21:14 | 60.26915 | 25.09151 | 3110 ft | 255 kts | 47° |
| 2026-05-06 21:14 | 60.28107 | 25.11783 | 2995 ft | 254 kts | 47° |
| 2026-05-06 21:14 | 60.29298 | 25.14417 | 2991 ft | 255 kts | 47° |
| 2026-05-06 21:14 | 60.30494 | 25.17065 | 2992 ft | 255 kts | 47° |
| 2026-05-06 21:15 | 60.31689 | 25.19713 | 2993 ft | 255 kts | 47° |
| 2026-05-06 21:15 | 60.32885 | 25.22354 | 2993 ft | 255 kts | 47° |
| 2026-05-06 21:15 | 60.34055 | 25.24957 | 2988 ft | 249 kts | 47° |
| 2026-05-06 21:15 | 60.35173 | 25.27450 | 2978 ft | 230 kts | 47° |
| 2026-05-06 21:16 | 60.36226 | 25.29800 | 2993 ft | 223 kts | 47° |
| 2026-05-06 21:16 | 60.37272 | 25.32127 | 2997 ft | 224 kts | 47° |
| 2026-05-06 21:16 | 60.38318 | 25.34449 | 2996 ft | 224 kts | 47° |
| 2026-05-06 21:16 | 60.39363 | 25.36788 | 2996 ft | 224 kts | 47° |
| 2026-05-06 21:17 | 60.40473 | 25.38977 | 2990 ft | 220 kts | 36° |
| 2026-05-06 21:17 | 60.41785 | 25.40264 | 2980 ft | 203 kts | 13° |
| 2026-05-06 21:17 | 60.43163 | 25.40287 | 2989 ft | 199 kts | 347° |
| 2026-05-06 21:17 | 60.44377 | 25.38958 | 2994 ft | 202 kts | 317° |
| 2026-05-06 21:18 | 60.45116 | 25.36542 | 3004 ft | 205 kts | 291° |
| 2026-05-06 21:18 | 60.45496 | 25.33758 | 3017 ft | 202 kts | 285° |
| 2026-05-06 21:18 | 60.45807 | 25.31088 | 3003 ft | 188 kts | 285° |
| 2026-05-06 21:18 | 60.45957 | 25.28471 | 2995 ft | 189 kts | 270° |
| 2026-05-06 21:19 | 60.45618 | 25.25938 | 2992 ft | 191 kts | 243° |
| 2026-05-06 21:19 | 60.44807 | 25.23767 | 2995 ft | 192 kts | 229° |
| 2026-05-06 21:19 | 60.43928 | 25.21858 | 2976 ft | 178 kts | 227° |
| 2026-05-06 21:19 | 60.43105 | 25.20074 | 2992 ft | 169 kts | 228° |
| 2026-05-06 21:20 | 60.42367 | 25.18439 | 2944 ft | 152 kts | 228° |
| 2026-05-06 21:20 | 60.41896 | 25.17401 | 2819 ft | 145 kts | 228° |
| 2026-05-06 21:20 | 60.41023 | 25.15489 | 2534 ft | 136 kts | 228° |
| 2026-05-06 21:20 | 60.40391 | 25.14091 | 2343 ft | 135 kts | 228° |
| 2026-05-06 21:21 | 60.39749 | 25.12682 | 2155 ft | 136 kts | 228° |
| 2026-05-06 21:21 | 60.39104 | 25.11277 | 1966 ft | 136 kts | 228° |
| 2026-05-06 21:21 | 60.38461 | 25.09870 | 1784 ft | 136 kts | 229° |
| 2026-05-06 21:21 | 60.37831 | 25.08453 | 1589 ft | 136 kts | 229° |
| 2026-05-06 21:22 | 60.37197 | 25.07046 | 1424 ft | 135 kts | 230° |
| 2026-05-06 21:22 | 60.36568 | 25.05644 | 1252 ft | 134 kts | 229° |
| 2026-05-06 21:22 | 60.35943 | 25.04261 | 1047 ft | 133 kts | 229° |
| 2026-05-06 21:22 | 60.35316 | 25.02896 | 845 ft | 132 kts | 228° |
| 2026-05-06 21:23 | 60.34709 | 25.01564 | 666 ft | 129 kts | 229° |
| 2026-05-06 21:23 | 60.34106 | 25.00218 | 505 ft | 129 kts | 229° |
| 2026-05-06 21:23 | 60.33509 | 24.98880 | 316 ft | 127 kts | 229° |
| 2026-05-06 21:23 | 60.32914 | 24.97557 | 208 ft | 127 kts | 229° |
| 2026-05-06 21:24 | 60.32412 | 24.96447 | 182 ft | 73 kts | 227° |
| 2026-05-06 21:24 | 60.32229 | 24.96048 | 196 ft | 25 kts | 226° |
| 2026-05-06 21:24 | 60.32095 | 24.95756 | 180 ft | 30 kts | 227° |
| 2026-05-06 21:24 | 60.31947 | 24.95449 | 179 ft | 30 kts | 219° |
| 2026-05-06 21:25 | 60.31774 | 24.95253 | 180 ft | 26 kts | 200° |
| 2026-05-06 21:25 | 60.31678 | 24.95202 | 177 ft | 0 kts | 173° |
| 2026-05-06 21:25 | 60.31670 | 24.95205 | 177 ft | 4 kts | 168° |
| 2026-05-06 21:26 | 60.31641 | 24.95219 | 177 ft | 4 kts | 168° |
| 2026-05-06 21:26 | 60.31607 | 24.95208 | 176 ft | 6 kts | 204° |
| 2026-05-06 21:26 | 60.31562 | 24.95140 | 176 ft | 10 kts | 224° |
| 2026-05-06 21:26 | 60.31502 | 24.95024 | 175 ft | 14 kts | 224° |
| 2026-05-06 21:27 | 60.31417 | 24.95043 | 173 ft | 15 kts | 137° |
| 2026-05-06 21:27 | 60.31331 | 24.95211 | 173 ft | 19 kts | 134° |
| 2026-05-06 21:27 | 60.31225 | 24.95405 | 172 ft | 21 kts | 138° |
| 2026-05-06 21:27 | 60.31165 | 24.95544 | 173 ft | 12 kts | 104° |
| 2026-05-06 21:28 | 60.31207 | 24.95696 | 173 ft | 14 kts | 45° |
| 2026-05-06 21:28 | 60.31281 | 24.95857 | 173 ft | 17 kts | 47° |
| 2026-05-06 21:28 | 60.31348 | 24.96008 | 173 ft | 5 kts | 57° |
| 2026-05-06 21:28 | 60.31347 | 24.96083 | 173 ft | 7 kts | 95° |
| 2026-05-06 21:29 | 60.31350 | 24.96143 | 173 ft | 3 kts | 63° |
| 2026-05-06 21:29 | 60.31372 | 24.96197 | 173 ft | 7 kts | 47° |
| 2026-05-06 21:29 | 60.31387 | 24.96230 | 173 ft | 0 kts | 48° |
| 2026-05-06 21:29 | 60.31390 | 24.96236 | 173 ft | 1 kts | 47° |
| 2026-05-06 21:30 | 60.31398 | 24.96253 | 173 ft | 0 kts | 47° |
| 2026-05-06 21:30 | 60.31399 | 24.96255 | 173 ft | 0 kts | 47° |